Time;durP1;ratioP1;P1;durP2;ratioP2;P2;SDS_P1;SDS_P2;PMS_P1;PMS_P2;Temp;Humidity;BMP_temperature;BMP_pressure;BME280_temperature;BME280_humidity;BME280_pressure;Samples;Min_cycle;Max_cycle;Signal;HPM_P1;HPM_P2
2022/02/13 00:01:52;;;;;;;;;;;;;;;9.91;67.05;103197.88;5044696;27;102584;-50
2022/02/13 00:04:18;;;;;;;;;;;;;;;9.92;66.84;103194.13;5040181;27;104024;-49
2022/02/13 00:06:45;;;;;;;;;;;;;;;9.92;66.77;103195.97;5041810;27;102672;-49
2022/02/13 00:09:11;;;;;;;;;;;;;;;9.91;66.95;103197.88;5042436;27;102598;-50
2022/02/13 00:11:38;;;;;;;;;;;;;;;9.92;66.54;103209.59;5044842;27;102945;-49
2022/02/13 00:14:04;;;;;;;;;;;;;;;9.91;67.00;103208.75;5047683;27;103811;-49
2022/02/13 00:16:35;;;;;;;;;;;;;;;9.91;66.60;103207.91;5047673;27;102375;-49
2022/02/13 00:19:02;;;;;;;;;;;;;;;9.92;66.85;103201.44;5053575;27;103121;-49
2022/02/13 00:21:31;;;;;;;;;;;;;;;9.92;66.64;103204.16;5041570;27;102774;-50
2022/02/13 00:23:58;;;;;;;;;;;;;;;9.90;67.02;103207.09;5047931;27;103669;-51
2022/02/13 00:26:24;;;;;;;;;;;;;;;9.92;66.50;103212.31;5046018;27;102287;-49
2022/02/13 00:28:49;;;;;;;;;;;;;;;9.92;66.91;103212.31;5049286;27;102174;-49
2022/02/13 00:31:15;;;;;;;;;;;;;;;9.90;66.59;103217.97;5039849;27;102526;-51
2022/02/13 00:33:41;;;;;;;;;;;;;;;9.91;66.92;103221.53;5040804;27;103639;-49
2022/02/13 00:36:09;;;;;;;;;;;;;;;9.92;66.96;103225.91;5049992;27;102719;-49
2022/02/13 00:38:35;;;;;;;;;;;;;;;9.91;66.87;103222.34;5040612;27;102732;-49
2022/02/13 00:41:01;;;;;;;;;;;;;;;9.91;66.91;103214.19;5040272;27;102456;-50
2022/02/13 00:43:28;;;;;;;;;;;;;;;9.91;66.72;103208.75;5039228;27;103870;-51
2022/02/13 00:45:54;;;;;;;;;;;;;;;9.91;66.59;103218.78;5048795;27;102552;-49
2022/02/13 00:48:20;;;;;;;;;;;;;;;9.90;66.55;103212.53;5047164;27;102506;-49
2022/02/13 00:50:46;;;;;;;;;;;;;;;9.91;66.44;103214.19;5047683;27;103116;-50
2022/02/13 00:53:13;;;;;;;;;;;;;;;9.91;67.25;103207.91;5045297;27;103827;-49
2022/02/13 00:55:39;;;;;;;;;;;;;;;9.91;66.56;103206.03;5053366;27;102811;-49
2022/02/13 00:58:05;;;;;;;;;;;;;;;9.91;66.59;103205.19;5054082;27;102366;-49
2022/02/13 01:00:31;;;;;;;;;;;;;;;9.91;66.58;103202.47;5058448;27;102190;-49
2022/02/13 01:02:57;;;;;;;;;;;;;;;9.91;66.70;103202.47;5037512;27;103763;-49
2022/02/13 01:05:23;;;;;;;;;;;;;;;9.90;66.84;103196.22;5040130;27;102128;-49
2022/02/13 01:07:50;;;;;;;;;;;;;;;9.91;66.36;103194.31;5067192;27;102345;-49
2022/02/13 01:10:17;;;;;;;;;;;;;;;9.91;66.85;103197.03;5050772;27;104130;-50
2022/02/13 01:12:43;;;;;;;;;;;;;;;9.91;66.61;103191.59;5044345;27;104090;-50
2022/02/13 01:15:09;;;;;;;;;;;;;;;9.91;66.91;103186.16;5045558;27;102297;-50
2022/02/13 01:17:37;;;;;;;;;;;;;;;9.91;66.50;103191.59;5041872;27;102340;-49
2022/02/13 01:20:05;;;;;;;;;;;;;;;9.90;67.10;103179.06;5042445;27;102380;-49
2022/02/13 01:22:42;;;;;;;;;;;;;;;9.90;66.84;103179.06;5046131;27;103931;-49
2022/02/13 01:25:09;;;;;;;;;;;;;;;9.91;67.04;103180.72;5048815;27;103502;-50
2022/02/13 01:27:37;;;;;;;;;;;;;;;9.90;66.97;103182.59;5041548;27;102399;-49
2022/02/13 01:30:03;;;;;;;;;;;;;;;9.90;66.73;103185.31;5041775;27;102644;-49
2022/02/13 01:32:31;;;;;;;;;;;;;;;9.90;66.93;103184.50;5039717;27;103875;-50
2022/02/13 01:34:57;;;;;;;;;;;;;;;9.90;66.58;103185.31;5048891;27;102456;-49
2022/02/13 01:37:23;;;;;;;;;;;;;;;9.90;67.08;103181.78;5043691;27;102476;-49
2022/02/13 01:39:49;;;;;;;;;;;;;;;9.90;66.49;103179.06;5054849;27;102484;-49
2022/02/13 01:42:16;;;;;;;;;;;;;;;9.89;66.66;103182.81;5060822;27;103462;-50
2022/02/13 01:44:43;;;;;;;;;;;;;;;9.90;66.67;103179.06;5045443;27;102579;-49
2022/02/13 01:47:09;;;;;;;;;;;;;;;9.90;66.36;103182.59;5046599;27;102150;-50
2022/02/13 01:49:37;;;;;;;;;;;;;;;9.90;66.40;103184.50;5040464;27;102236;-49
2022/02/13 01:52:04;;;;;;;;;;;;;;;9.89;66.77;103183.66;5046454;27;105970;-49
2022/02/13 01:54:30;;;;;;;;;;;;;;;9.89;66.82;103183.66;5040822;27;103380;-49
2022/02/13 01:56:56;;;;;;;;;;;;;;;9.90;66.50;103179.06;5039392;27;102096;-50
2022/02/13 01:59:23;;;;;;;;;;;;;;;9.89;66.61;103189.09;5046977;27;102867;-50
2022/02/13 02:01:50;;;;;;;;;;;;;;;9.91;67.09;103186.16;5048994;27;103837;-49
2022/02/13 02:04:16;;;;;;;;;;;;;;;9.90;66.59;103190.75;5048146;27;102874;-49
2022/02/13 02:06:42;;;;;;;;;;;;;;;9.90;66.68;103192.66;5046846;27;102614;-49
2022/02/13 02:09:09;;;;;;;;;;;;;;;9.89;67.07;103205.41;5051641;27;102490;-49
2022/02/13 02:11:35;;;;;;;;;;;;;;;9.89;66.59;103199.97;5051407;27;103952;-50
2022/02/13 02:14:07;;;;;;;;;;;;;;;9.89;66.90;103199.16;5046337;27;102601;-49
2022/02/13 02:16:33;;;;;;;;;;;;;;;9.89;66.73;103193.69;5050172;27;102580;-50
2022/02/13 02:19:00;;;;;;;;;;;;;;;9.89;66.74;103199.97;5042877;27;102142;-49
2022/02/13 02:21:26;;;;;;;;;;;;;;;9.89;66.66;103205.41;5045043;27;104557;-50
2022/02/13 02:23:54;;;;;;;;;;;;;;;9.87;66.66;103202.88;5051294;27;102325;-49
2022/02/13 02:26:21;;;;;;;;;;;;;;;9.89;66.88;103207.31;5050208;27;102817;-49
2022/02/13 02:28:47;;;;;;;;;;;;;;;9.88;66.74;103209.16;5051504;27;102700;-50
2022/02/13 02:31:13;;;;;;;;;;;;;;;9.89;66.80;103204.59;5041733;27;103865;-50
2022/02/13 02:33:41;;;;;;;;;;;;;;;9.88;66.91;103209.16;5053953;27;102165;-49
2022/02/13 02:36:13;;;;;;;;;;;;;;;9.89;66.61;103210.84;5042200;27;102375;-49
2022/02/13 02:38:39;;;;;;;;;;;;;;;9.87;66.49;103208.31;5043702;27;102537;-49
2022/02/13 02:41:07;;;;;;;;;;;;;;;9.89;67.28;103204.59;5047325;27;103915;-49
2022/02/13 02:43:33;;;;;;;;;;;;;;;9.87;66.99;103208.31;5047952;27;102506;-49
2022/02/13 02:45:59;;;;;;;;;;;;;;;9.87;66.86;103207.50;5057564;27;102399;-49
2022/02/13 02:48:25;;;;;;;;;;;;;;;9.89;66.31;103220.91;5045348;27;102635;-49
2022/02/13 02:50:51;;;;;;;;;;;;;;;9.87;66.49;103219.22;5051608;27;104022;-49
2022/02/13 02:53:17;;;;;;;;;;;;;;;9.87;66.62;103219.22;5049919;27;102724;-49
2022/02/13 02:55:43;;;;;;;;;;;;;;;9.87;66.65;103224.66;5050985;27;102233;-50
2022/02/13 02:58:10;;;;;;;;;;;;;;;9.88;66.72;103225.47;5038415;27;102137;-49
2022/02/13 03:00:36;;;;;;;;;;;;;;;9.89;66.49;103231.78;5052826;27;104217;-49
2022/02/13 03:03:02;;;;;;;;;;;;;;;9.87;66.66;103226.53;5044233;27;102685;-50
2022/02/13 03:05:29;;;;;;;;;;;;;;;9.86;66.59;103228.41;5045063;27;102251;-49
2022/02/13 03:07:55;;;;;;;;;;;;;;;9.86;66.67;103217.53;5045816;27;102376;-49
2022/02/13 03:10:21;;;;;;;;;;;;;;;9.86;67.19;103222.16;5046627;27;103851;-49
2022/02/13 03:12:47;;;;;;;;;;;;;;;9.86;66.87;103231.13;5048819;27;102147;-49
2022/02/13 03:15:15;;;;;;;;;;;;;;;9.87;67.08;103221.91;5046862;27;102690;-49
2022/02/13 03:17:41;;;;;;;;;;;;;;;9.86;66.76;103225.69;5055048;27;102233;-49
2022/02/13 03:20:09;;;;;;;;;;;;;;;9.85;66.74;103229.47;5044032;27;103874;-49
2022/02/13 03:22:35;;;;;;;;;;;;;;;9.85;66.82;103229.47;5037876;27;102531;-49
2022/02/13 03:25:02;;;;;;;;;;;;;;;9.85;67.22;103226.75;5039473;27;102352;-50
2022/02/13 03:27:27;;;;;;;;;;;;;;;9.86;66.85;103228.41;5040962;27;102671;-49
2022/02/13 03:29:54;;;;;;;;;;;;;;;9.87;66.53;103234.69;5043007;27;103952;-49
2022/02/13 03:32:22;;;;;;;;;;;;;;;9.86;66.99;103239.28;5048584;27;102407;-49
2022/02/13 03:34:48;;;;;;;;;;;;;;;9.85;66.93;103232.19;5050910;27;102476;-49
2022/02/13 03:37:14;;;;;;;;;;;;;;;9.86;66.91;103233.03;5050998;27;102264;-49
2022/02/13 03:39:40;;;;;;;;;;;;;;;9.86;66.67;103228.41;5045788;27;104011;-49
2022/02/13 03:42:07;;;;;;;;;;;;;;;9.86;66.35;103228.41;5051008;27;102623;-49
2022/02/13 03:44:36;;;;;;;;;;;;;;;9.85;66.61;103232.19;5048951;27;102686;-49
2022/02/13 03:47:02;;;;;;;;;;;;;;;9.86;66.90;103228.41;5042544;27;102365;-49
2022/02/13 03:49:29;;;;;;;;;;;;;;;9.85;66.87;103226.75;5040851;27;103922;-49
2022/02/13 03:51:56;;;;;;;;;;;;;;;9.85;66.74;103232.19;5050745;27;102269;-49
2022/02/13 03:54:22;;;;;;;;;;;;;;;9.85;66.90;103231.34;5051688;27;102497;-49
2022/02/13 03:56:48;;;;;;;;;;;;;;;9.85;66.63;103232.19;5056897;27;102224;-49
2022/02/13 03:59:14;;;;;;;;;;;;;;;9.84;66.66;103230.53;5031955;27;103479;-49
2022/02/13 04:01:40;;;;;;;;;;;;;;;9.85;66.80;103231.34;5036247;27;102363;-49
2022/02/13 04:04:06;;;;;;;;;;;;;;;9.86;66.90;103233.03;5038458;27;102744;-49
2022/02/13 04:06:34;;;;;;;;;;;;;;;9.85;66.71;103234.91;5048918;27;102770;-49
2022/02/13 04:09:00;;;;;;;;;;;;;;;9.85;66.87;103232.19;5040453;27;103936;-50
2022/02/13 04:11:27;;;;;;;;;;;;;;;9.85;67.06;103229.47;5040507;27;104435;-50
2022/02/13 04:13:53;;;;;;;;;;;;;;;9.85;66.63;103225.91;5047377;27;102165;-49
2022/02/13 04:16:20;;;;;;;;;;;;;;;9.85;66.52;103239.50;5050593;27;102599;-49
2022/02/13 04:18:47;;;;;;;;;;;;;;;9.85;66.62;103224.03;5043022;27;104070;-49
2022/02/13 04:21:13;;;;;;;;;;;;;;;9.85;66.41;103231.34;5054671;27;102413;-50
2022/02/13 04:23:41;;;;;;;;;;;;;;;9.85;66.79;103236.78;5049984;27;102181;-49
2022/02/13 04:26:07;;;;;;;;;;;;;;;9.84;66.64;103233.25;5051184;27;102445;-49
2022/02/13 04:28:33;;;;;;;;;;;;;;;9.84;66.37;103235.97;5056849;27;103925;-49
2022/02/13 04:30:59;;;;;;;;;;;;;;;9.84;66.90;103235.09;5053889;27;102236;-50
2022/02/13 04:33:25;;;;;;;;;;;;;;;9.84;66.41;103245.97;5045163;27;102502;-49
2022/02/13 04:35:51;;;;;;;;;;;;;;;9.84;66.76;103241.41;5055099;27;102723;-50
2022/02/13 04:38:18;;;;;;;;;;;;;;;9.84;66.90;103230.53;5046983;27;105486;-49
2022/02/13 04:40:45;;;;;;;;;;;;;;;9.84;66.91;103233.25;5049026;27;102609;-49
2022/02/13 04:43:11;;;;;;;;;;;;;;;9.84;66.63;103227.81;5049732;27;104622;-50
2022/02/13 04:45:38;;;;;;;;;;;;;;;9.84;66.80;103235.97;5048254;27;102508;-50
2022/02/13 04:48:04;;;;;;;;;;;;;;;9.84;67.08;103230.53;5047471;27;103873;-50
2022/02/13 04:50:30;;;;;;;;;;;;;;;9.84;66.90;103235.97;5047899;27;102730;-49
2022/02/13 04:52:56;;;;;;;;;;;;;;;9.83;66.58;103234.25;5037532;27;102454;-49
2022/02/13 04:55:23;;;;;;;;;;;;;;;9.83;66.88;103234.25;5047094;27;102599;-50
2022/02/13 04:57:50;;;;;;;;;;;;;;;9.83;66.59;103239.69;5046734;27;103786;-49
2022/02/13 05:00:17;;;;;;;;;;;;;;;9.84;66.93;103235.09;5045024;27;103228;-49
2022/02/13 05:02:45;;;;;;;;;;;;;;;9.84;66.99;103240.53;5047913;27;102488;-50
2022/02/13 05:05:11;;;;;;;;;;;;;;;9.82;66.59;103235.31;5047471;27;102723;-49
2022/02/13 05:07:38;;;;;;;;;;;;;;;9.83;66.56;103239.69;5044120;27;103826;-49
2022/02/13 05:10:04;;;;;;;;;;;;;;;9.82;66.97;103237.19;5050545;27;102407;-50
2022/02/13 05:12:33;;;;;;;;;;;;;;;9.81;67.23;103239.09;5048231;27;102253;-50
2022/02/13 05:15:00;;;;;;;;;;;;;;;9.83;66.51;103239.69;5050173;27;102335;-49
2022/02/13 05:17:26;;;;;;;;;;;;;;;9.83;67.01;103231.53;5049409;27;103952;-50
2022/02/13 05:19:52;;;;;;;;;;;;;;;9.83;66.57;103228.81;5046512;27;102751;-49
2022/02/13 05:22:18;;;;;;;;;;;;;;;9.82;66.95;103237.19;5041034;27;102293;-49
2022/02/13 05:24:45;;;;;;;;;;;;;;;9.82;66.51;103231.75;5040762;27;102566;-49
2022/02/13 05:27:12;;;;;;;;;;;;;;;9.82;66.61;103231.75;5047911;27;103855;-49
2022/02/13 05:29:39;;;;;;;;;;;;;;;9.83;66.63;103230.72;5041451;27;102167;-49
2022/02/13 05:32:07;;;;;;;;;;;;;;;9.82;66.70;103226.31;5041656;27;102721;-50
2022/02/13 05:34:33;;;;;;;;;;;;;;;9.81;66.77;103230.94;5047530;27;102529;-49
2022/02/13 05:36:59;;;;;;;;;;;;;;;9.83;66.67;103234.25;5048543;27;103934;-49
2022/02/13 05:39:25;;;;;;;;;;;;;;;9.81;66.69;103225.50;5049461;27;102440;-49
2022/02/13 05:41:51;;;;;;;;;;;;;;;9.81;66.91;103228.22;5047921;27;102600;-49
2022/02/13 05:44:17;;;;;;;;;;;;;;;9.81;66.81;103225.50;5039356;27;102686;-49
2022/02/13 05:46:43;;;;;;;;;;;;;;;9.82;66.85;103229.88;5045896;27;105202;-50
2022/02/13 05:49:11;;;;;;;;;;;;;;;9.82;66.49;103243.47;5045742;27;102497;-49
2022/02/13 05:51:37;;;;;;;;;;;;;;;9.83;67.08;103228.00;5047427;27;102315;-50
2022/02/13 05:54:03;;;;;;;;;;;;;;;9.82;66.72;103229.88;5041962;27;102374;-49
2022/02/13 05:56:29;;;;;;;;;;;;;;;9.82;67.05;103237.19;5043824;27;103850;-49
2022/02/13 05:58:55;;;;;;;;;;;;;;;9.82;66.94;103240.75;5041159;27;102409;-50
2022/02/13 06:01:22;;;;;;;;;;;;;;;9.83;66.45;103245.13;5045933;27;102030;-50
2022/02/13 06:03:48;;;;;;;;;;;;;;;9.82;66.78;103234.47;5055700;27;102316;-49
2022/02/13 06:06:16;;;;;;;;;;;;;;;9.82;66.70;103234.47;5045264;27;103700;-50
2022/02/13 06:08:42;;;;;;;;;;;;;;;9.83;66.84;103236.16;5035184;27;102877;-50
2022/02/13 06:11:08;;;;;;;;;;;;;;;9.83;66.68;103239.69;5041238;27;102467;-49
2022/02/13 06:13:34;;;;;;;;;;;;;;;9.83;66.86;103233.44;5045637;27;102821;-50
2022/02/13 06:16:01;;;;;;;;;;;;;;;9.82;66.57;103229.88;5042698;27;103976;-49
2022/02/13 06:18:27;;;;;;;;;;;;;;;9.82;66.30;103242.63;5029064;27;102654;-49
2022/02/13 06:20:53;;;;;;;;;;;;;;;9.83;66.40;103245.13;5036890;27;104037;-50
2022/02/13 06:23:21;;;;;;;;;;;;;;;9.81;66.92;103236.38;5042004;27;102544;-49
2022/02/13 06:25:47;;;;;;;;;;;;;;;9.83;67.11;103234.25;5039796;27;104029;-49
2022/02/13 06:28:13;;;;;;;;;;;;;;;9.83;66.80;103242.41;5052484;27;102594;-49
2022/02/13 06:30:39;;;;;;;;;;;;;;;9.83;66.76;103228.00;5043901;27;102780;-49
2022/02/13 06:33:05;;;;;;;;;;;;;;;9.82;66.50;103232.59;5046361;27;102422;-51
2022/02/13 06:35:31;;;;;;;;;;;;;;;9.83;66.68;103244.31;5045465;27;103776;-50
2022/02/13 06:37:58;;;;;;;;;;;;;;;9.82;66.92;103243.47;5041524;27;102903;-50
2022/02/13 06:40:25;;;;;;;;;;;;;;;9.84;66.67;103244.13;5045782;27;102626;-50
2022/02/13 06:42:51;;;;;;;;;;;;;;;9.81;66.83;103233.66;5034877;27;102528;-50
2022/02/13 06:45:17;;;;;;;;;;;;;;;9.81;67.17;103228.22;5045989;27;104116;-50
2022/02/13 06:47:44;;;;;;;;;;;;;;;9.81;66.90;103230.94;5042614;27;102282;-49
2022/02/13 06:50:10;;;;;;;;;;;;;;;9.82;66.45;103240.75;5047694;27;102393;-50
2022/02/13 06:52:36;;;;;;;;;;;;;;;9.83;66.86;103228.00;5054042;27;102327;-49
2022/02/13 06:55:03;;;;;;;;;;;;;;;9.83;66.64;103228.81;5053308;27;103649;-49
2022/02/13 06:57:31;;;;;;;;;;;;;;;9.83;67.08;103219.84;5045967;27;102571;-50
2022/02/13 06:59:57;;;;;;;;;;;;;;;9.81;66.86;103220.03;5035618;27;102810;-49
2022/02/13 07:02:23;;;;;;;;;;;;;;;9.81;66.69;103209.16;5054347;27;102612;-49
2022/02/13 07:04:49;;;;;;;;;;;;;;;9.81;66.94;103214.59;5039976;27;103719;-50
2022/02/13 07:07:15;;;;;;;;;;;;;;;9.81;66.67;103220.03;5051870;27;102231;-49
2022/02/13 07:09:41;;;;;;;;;;;;;;;9.82;67.15;103210.00;5045217;27;102195;-49
2022/02/13 07:12:12;;;;;;;;;;;;;;;9.81;67.08;103209.16;5058214;27;102815;-49
2022/02/13 07:14:41;;;;;;;;;;;;;;;9.81;66.43;103213.78;5040098;27;104069;-49
2022/02/13 07:17:07;;;;;;;;;;;;;;;9.81;66.58;103214.59;5044967;27;102048;-50
2022/02/13 07:19:33;;;;;;;;;;;;;;;9.83;66.47;103211.66;5045921;27;102298;-49
2022/02/13 07:21:59;;;;;;;;;;;;;;;9.82;66.90;103215.44;5049531;27;102728;-49
2022/02/13 07:24:25;;;;;;;;;;;;;;;9.81;66.58;103209.16;5046412;27;103918;-50
2022/02/13 07:26:51;;;;;;;;;;;;;;;9.81;67.10;103206.44;5047806;27;103146;-49
2022/02/13 07:29:20;;;;;;;;;;;;;;;9.81;66.49;103213.78;5041141;27;103039;-49
2022/02/13 07:31:47;;;;;;;;;;;;;;;9.82;66.64;103215.44;5034703;27;103354;-49
2022/02/13 07:34:13;;;;;;;;;;;;;;;9.80;66.88;103212.91;5045405;27;103998;-49
2022/02/13 07:36:39;;;;;;;;;;;;;;;9.81;66.77;103211.88;5035639;27;102761;-49
2022/02/13 07:39:05;;;;;;;;;;;;;;;9.81;66.82;103214.59;5037737;27;102848;-50
2022/02/13 07:41:32;;;;;;;;;;;;;;;9.82;66.78;103215.44;5032676;27;103497;-50
2022/02/13 07:43:58;;;;;;;;;;;;;;;9.82;66.35;103215.44;5044370;27;103764;-49
2022/02/13 07:46:24;;;;;;;;;;;;;;;9.83;66.44;103214.38;5043553;27;102455;-49
2022/02/13 07:48:52;;;;;;;;;;;;;;;9.81;66.46;103209.16;5046515;27;102358;-49
2022/02/13 07:51:18;;;;;;;;;;;;;;;9.81;66.08;103214.59;5041232;27;102605;-49
2022/02/13 07:53:45;;;;;;;;;;;;;;;9.83;66.02;103217.09;5044219;27;104075;-49
2022/02/13 07:56:11;;;;;;;;;;;;;;;9.82;66.51;103210.00;5036712;27;102875;-49
2022/02/13 07:58:37;;;;;;;;;;;;;;;9.83;65.98;103212.50;5037107;27;102523;-49
2022/02/13 08:01:04;;;;;;;;;;;;;;;9.83;66.12;103207.06;5051094;27;102247;-49
2022/02/13 08:03:32;;;;;;;;;;;;;;;9.83;66.74;103204.34;5046748;27;103607;-49
2022/02/13 08:06:00;;;;;;;;;;;;;;;9.83;66.39;103200.78;5044120;27;102228;-49
2022/02/13 08:08:29;;;;;;;;;;;;;;;9.83;66.27;103207.06;5044890;27;102660;-49
2022/02/13 08:10:55;;;;;;;;;;;;;;;9.84;66.28;103197.88;5040405;27;102270;-50
2022/02/13 08:13:22;;;;;;;;;;;;;;;9.83;66.28;103196.19;5048487;27;103789;-50
2022/02/13 08:15:51;;;;;;;;;;;;;;;9.82;66.05;103197.25;5046271;27;102565;-55
2022/02/13 08:18:17;;;;;;;;;;;;;;;9.83;66.33;103185.31;5049994;27;102071;-49
2022/02/13 08:20:43;;;;;;;;;;;;;;;9.84;65.97;103197.88;5048450;27;102475;-49
2022/02/13 08:23:11;;;;;;;;;;;;;;;9.85;65.97;103193.28;5046825;27;103846;-49
2022/02/13 08:25:38;;;;;;;;;;;;;;;9.84;65.88;103197.88;5045882;27;102511;-49
2022/02/13 08:28:05;;;;;;;;;;;;;;;9.84;66.38;103187.00;5044899;27;102218;-50
2022/02/13 08:30:31;;;;;;;;;;;;;;;9.85;65.73;103188.66;5050256;27;102159;-49
2022/02/13 08:32:58;;;;;;;;;;;;;;;9.85;66.05;103190.56;5048474;27;103880;-49
2022/02/13 08:35:24;;;;;;;;;;;;;;;9.85;66.28;103194.09;5048257;27;102253;-49
2022/02/13 08:37:50;;;;;;;;;;;;;;;9.85;66.01;103194.09;5048457;27;102524;-49
2022/02/13 08:40:18;;;;;;;;;;;;;;;9.86;65.94;103190.34;5034763;27;102481;-49
2022/02/13 08:42:45;;;;;;;;;;;;;;;9.87;66.02;103191.16;5039942;27;104552;-49
2022/02/13 08:45:11;;;;;;;;;;;;;;;9.87;65.40;103186.56;5051330;27;102473;-49
2022/02/13 08:47:37;;;;;;;;;;;;;;;9.87;65.92;103180.28;5046575;27;102540;-50
2022/02/13 08:50:13;;;;;;;;;;;;;;;9.90;65.33;103184.50;5047607;27;102726;-49
2022/02/13 08:52:40;;;;;;;;;;;;;;;9.92;65.62;103187.81;5048482;27;103967;-50
2022/02/13 08:55:07;;;;;;;;;;;;;;;9.91;66.00;103192.44;5050298;27;102131;-49
2022/02/13 08:57:35;;;;;;;;;;;;;;;9.91;65.60;103188.88;5044433;27;102541;-50
2022/02/13 09:00:01;;;;;;;;;;;;;;;9.91;65.75;103186.16;5050955;27;102608;-50
2022/02/13 09:02:27;;;;;;;;;;;;;;;9.92;65.62;103176.94;5045450;27;103881;-49
2022/02/13 09:04:53;;;;;;;;;;;;;;;9.92;65.83;103182.38;5049475;27;102570;-50
2022/02/13 09:07:20;;;;;;;;;;;;;;;9.92;65.34;103187.81;5056186;27;102494;-49
2022/02/13 09:09:47;;;;;;;;;;;;;;;9.92;65.76;103190.53;5057147;27;102339;-49
2022/02/13 09:12:15;;;;;;;;;;;;;;;9.92;65.67;103193.25;5054846;27;103536;-50
2022/02/13 09:14:42;;;;;;;;;;;;;;;9.92;65.51;103187.81;5046596;27;102831;-49
2022/02/13 09:17:08;;;;;;;;;;;;;;;9.92;65.08;103183.25;5055331;27;102349;-50
2022/02/13 09:19:34;;;;;;;;;;;;;;;9.93;65.54;103184.09;5057833;27;102182;-49
2022/02/13 09:22:01;;;;;;;;;;;;;;;9.93;65.23;103175.91;5041142;27;103975;-49
2022/02/13 09:24:27;;;;;;;;;;;;;;;9.93;65.34;103175.91;5033256;27;102462;-49
2022/02/13 09:26:54;;;;;;;;;;;;;;;9.93;64.94;103167.75;5031463;27;103326;-50
2022/02/13 09:29:20;;;;;;;;;;;;;;;9.94;65.10;103169.44;5046174;27;102360;-50
2022/02/13 09:31:47;;;;;;;;;;;;;;;9.94;64.88;103161.25;5039032;27;105207;-50
2022/02/13 09:34:18;;;;;;;;;;;;;;;9.94;64.82;103155.81;5030761;27;102333;-49
2022/02/13 09:36:45;;;;;;;;;;;;;;;9.93;64.85;103146.00;5044296;27;102684;-49
2022/02/13 09:39:11;;;;;;;;;;;;;;;9.94;65.07;103144.94;5045588;27;103608;-50
2022/02/13 09:41:39;;;;;;;;;;;;;;;9.95;65.30;103143.91;5040988;27;104071;-49
2022/02/13 09:44:05;;;;;;;;;;;;;;;9.95;64.69;103143.91;5046772;27;102372;-50
2022/02/13 09:46:32;;;;;;;;;;;;;;;9.95;64.68;103138.44;5036944;27;102168;-51
2022/02/13 09:49:00;;;;;;;;;;;;;;;9.95;65.07;103141.16;5033048;27;102200;-51
2022/02/13 09:51:25;;;;;;;;;;;;;;;9.95;65.04;103131.13;5037258;27;103908;-50
2022/02/13 09:53:52;;;;;;;;;;;;;;;9.95;64.51;103133.00;5045382;27;102616;-49
2022/02/13 09:56:17;;;;;;;;;;;;;;;9.95;64.95;103135.72;5046928;27;102458;-49
2022/02/13 09:58:44;;;;;;;;;;;;;;;9.96;64.42;103129.28;5055559;27;102891;-49
2022/02/13 10:01:11;;;;;;;;;;;;;;;9.96;64.38;103123.81;5039606;27;103917;-49
2022/02/13 10:03:38;;;;;;;;;;;;;;;9.96;64.47;103118.38;5052673;27;102680;-49
2022/02/13 10:06:23;;;;;;;;;;;;;;;9.95;64.34;103124.84;5041849;27;102597;-50
2022/02/13 10:08:51;;;;;;;;;;;;;;;9.95;64.51;103116.69;5048489;27;102608;-49
2022/02/13 10:11:19;;;;;;;;;;;;;;;9.95;64.57;103114.81;5047153;27;103595;-50
2022/02/13 10:13:47;;;;;;;;;;;;;;;9.95;64.44;103113.97;5038794;27;102173;-50
2022/02/13 10:16:14;;;;;;;;;;;;;;;9.96;64.51;103108.34;5042962;27;102108;-50
2022/02/13 10:18:58;;;;;;;;;;;;;;;9.97;64.17;103103.72;5043802;27;102654;-49
2022/02/13 10:21:32;;;;;;;;;;;;;;;9.96;64.33;103099.34;5049076;27;107954;-51
2022/02/13 10:24:12;;;;;;;;;;;;;;;9.96;63.92;103102.06;5045171;27;102203;-50
2022/02/13 10:26:38;;;;;;;;;;;;;;;9.95;64.10;103090.31;5040896;27;102455;-50
2022/02/13 10:29:04;;;;;;;;;;;;;;;9.95;63.88;103089.50;5049393;27;102562;-49
2022/02/13 10:31:31;;;;;;;;;;;;;;;9.96;64.14;103091.19;5042226;27;103868;-50
2022/02/13 10:33:58;;;;;;;;;;;;;;;9.95;64.13;103087.59;5052064;27;102574;-49
2022/02/13 10:36:24;;;;;;;;;;;;;;;9.95;64.21;103084.88;5051160;27;102294;-49
2022/02/13 10:38:50;;;;;;;;;;;;;;;9.95;64.21;103079.44;5043976;27;103490;-49
2022/02/13 10:41:19;;;;;;;;;;;;;;;9.96;63.97;103070.25;5050741;27;103825;-49
2022/02/13 10:43:50;;;;;;;;;;;;;;;9.96;64.34;103063.97;5051941;27;102011;-50
2022/02/13 10:46:16;;;;;;;;;;;;;;;9.96;64.24;103070.25;5050461;27;102662;-50
2022/02/13 10:48:43;;;;;;;;;;;;;;;9.96;64.02;103056.66;5051697;27;102634;-49
2022/02/13 10:51:10;;;;;;;;;;;;;;;9.96;64.48;103059.38;5053843;27;103864;-49
2022/02/13 10:53:36;;;;;;;;;;;;;;;9.97;64.08;103065.66;5049523;27;102276;-49
2022/02/13 10:56:03;;;;;;;;;;;;;;;9.96;64.17;103059.38;5051349;27;102499;-49
2022/02/13 10:58:31;;;;;;;;;;;;;;;9.97;64.23;103049.31;5053924;27;102747;-49
2022/02/13 11:01:00;;;;;;;;;;;;;;;9.97;64.26;103054.75;5046134;27;103823;-50
2022/02/13 11:03:30;;;;;;;;;;;;;;;9.97;64.06;103052.03;5040264;27;102130;-49
2022/02/13 11:05:58;;;;;;;;;;;;;;;9.98;64.21;103048.28;5050122;27;102455;-49
2022/02/13 11:08:25;;;;;;;;;;;;;;;9.96;64.14;103044.94;5051831;27;102402;-50
2022/02/13 11:10:52;;;;;;;;;;;;;;;9.97;64.65;103043.88;5060233;27;103947;-49
2022/02/13 11:13:22;;;;;;;;;;;;;;;9.97;64.17;103041.16;5050364;27;102307;-50
2022/02/13 11:15:51;;;;;;;;;;;;;;;9.97;64.59;103038.44;5046711;27;102491;-50
2022/02/13 11:18:21;;;;;;;;;;;;;;;9.98;64.75;103042.81;5060585;27;102262;-49
2022/02/13 11:20:48;;;;;;;;;;;;;;;9.97;64.55;103039.28;5053938;27;103866;-49
2022/02/13 11:23:21;;;;;;;;;;;;;;;9.98;64.66;103034.66;5045829;27;102011;-49
2022/02/13 11:25:49;;;;;;;;;;;;;;;9.98;64.85;103034.66;5035706;27;102152;-49
2022/02/13 11:28:25;;;;;;;;;;;;;;;9.98;64.50;103040.94;5038407;27;102466;-49
2022/02/13 11:30:53;;;;;;;;;;;;;;;9.97;64.64;103030.28;5039092;27;104073;-50
2022/02/13 11:33:40;;;;;;;;;;;;;;;9.97;64.47;103022.13;5067786;27;102187;-49
2022/02/13 11:36:07;;;;;;;;;;;;;;;9.98;64.34;103023.78;5044082;27;102217;-49
2022/02/13 11:38:53;;;;;;;;;;;;;;;9.97;64.44;103016.69;5044490;27;102408;-50
2022/02/13 11:41:19;;;;;;;;;;;;;;;9.97;64.76;103016.69;5044898;27;108279;-49
2022/02/13 11:43:59;;;;;;;;;;;;;;;9.96;64.63;103018.56;5041946;27;102283;-49
2022/02/13 11:46:52;;;;;;;;;;;;;;;9.96;64.45;103004.97;5051862;27;102419;-49
2022/02/13 11:49:20;;;;;;;;;;;;;;;9.96;64.62;103010.41;5044985;27;102359;-49
2022/02/13 11:51:56;;;;;;;;;;;;;;;9.97;64.44;103000.38;5041966;27;104090;-49
2022/02/13 11:54:42;;;;;;;;;;;;;;;9.96;64.39;102987.81;5057823;27;102264;-49
2022/02/13 11:57:08;;;;;;;;;;;;;;;9.95;65.06;102986.94;5049816;27;102373;-50
2022/02/13 11:59:56;;;;;;;;;;;;;;;9.96;64.69;102985.09;5049448;27;102788;-49
2022/02/13 12:02:37;;;;;;;;;;;;;;;9.96;64.94;102977.78;5049568;27;103970;-49
2022/02/13 12:05:17;;;;;;;;;;;;;;;9.95;64.52;102984.25;5047868;27;102382;-49
2022/02/13 12:07:57;;;;;;;;;;;;;;;9.95;64.53;102975.25;5067655;27;103669;-49
2022/02/13 12:10:31;;;;;;;;;;;;;;;9.94;64.89;102976.28;5049577;27;102833;-50
2022/02/13 12:13:04;;;;;;;;;;;;;;;9.94;64.82;102958.09;5049139;27;104054;-50
2022/02/13 12:15:30;;;;;;;;;;;;;;;9.94;64.58;102968.97;5047893;27;102566;-49
2022/02/13 12:18:03;;;;;;;;;;;;;;;9.95;65.06;102948.03;5044126;27;102218;-49
2022/02/13 12:20:31;;;;;;;;;;;;;;;9.94;65.02;102952.66;5049173;27;102603;-50
2022/02/13 12:23:00;;;;;;;;;;;;;;;9.94;65.22;102957.25;5048561;27;103889;-50
2022/02/13 12:25:30;;;;;;;;;;;;;;;9.93;64.78;102955.59;5046769;27;102498;-49
2022/02/13 12:27:57;;;;;;;;;;;;;;;9.93;64.74;102958.31;5047471;27;103259;-49
2022/02/13 12:30:23;;;;;;;;;;;;;;;9.93;65.06;102952.88;5045361;27;102500;-49
2022/02/13 12:32:49;;;;;;;;;;;;;;;9.93;64.95;102947.44;5050055;27;103880;-50
2022/02/13 12:35:15;;;;;;;;;;;;;;;9.92;64.50;102943.03;5037350;27;102139;-49
2022/02/13 12:37:44;;;;;;;;;;;;;;;9.93;64.53;102947.44;5043863;27;102319;-49